• Join FlightAware (Why Join?)
  • Login
  • US Flag 
02:14PM EDT


 

Airport Tracker/Info


-or-


 

Live Flight TrackerFlight Track Log ✈ EJA982 ✈ 04-Jun-2013 ✈ KLAS - KORD

Flight Track Log - Related Links

Times and Time Zones

All times are in EDT time to prevent confusion due to time zone crossing. See the EJA982 flight status page for this flight to view local times or setup timezone preferences in your user account.

Time Position Orientation Groundspeed Altitude Reporting Facility
EDT Latitude Longitude Course Direction KTS MPH feet Rate Location/Type
05:13PM 36.0761 -115.1683 271° West 172 198 3,000  Level Los Angeles Center
05:14PM 36.0772 -115.2531 271° West 233 268 6,200 2,940 Climbing Los Angeles Center
05:14PM 36.0869 -115.2753 298° West 238 274 7,200 3,900 Climbing Los Angeles Center
05:15PM 36.1319 -115.2961 339° North 262 302 10,100 3,840 Climbing Los Angeles Center
05:16PM 36.1536 -115.2850 22° Northeast 263 303 11,200 2,640 Climbing Los Angeles Center
05:17PM 36.1894 -115.2042 61° Northeast 285 328 14,000 2,280 Climbing Los Angeles Center
05:18PM 36.1967 -115.0547 87° East 363 418 16,000 1,800 Climbing Los Angeles Center
05:19PM 36.1981 -114.9200 89° East 388 447 17,800 1,740 Climbing Los Angeles Center
05:20PM 36.1986 -114.7828 90° East 395 455 19,700 1,680 Climbing Los Angeles Center
05:21PM 36.1981 -114.6439 90° East 402 463 21,400 1,500 Climbing Los Angeles Center
05:22PM 36.1961 -114.5011 91° East 411 473 22,900 1,320 Climbing Los Angeles Center
05:23PM 36.1936 -114.3544 91° East 421 484 24,500 900 Climbing Los Angeles Center
05:24PM 36.2547 -114.1525 69° East 453 521 25,000 300 Climbing Los Angeles Center
05:25PM 36.3153 -114.0031 63° Northeast 477 549 25,200 660 Climbing Los Angeles Center
05:26PM 36.3728 -113.8528 65° Northeast 483 556 26,400 1,200 Climbing Los Angeles Center
05:27PM 36.4314 -113.7042 64° Northeast 482 555 27,800 1,260 Climbing Los Angeles Center
05:28PM 36.4892 -113.5556 64° Northeast 479 551 29,100 1,200 Climbing Los Angeles Center
05:29PM 36.5494 -113.3978 65° Northeast 477 549 30,400 1,200 Climbing Los Angeles Center
05:30PM 36.6078 -113.2486 64° Northeast 479 551 31,600 1,140 Climbing Los Angeles Center
05:31PM 36.6847 -113.1106 55° Northeast 489 563 32,800 1,200 Climbing Los Angeles Center
05:32PM 36.7878 -112.9483 52° Northeast 496 571 34,200 1,200 Climbing Los Angeles Center
05:33PM 36.8731 -112.8103 52° Northeast 503 579 35,400 1,140 Climbing Los Angeles Center
05:34PM 36.9531 -112.6653 55° Northeast 509 586 36,600 1,080 Climbing Los Angeles Center
05:35PM 37.0122 -112.5033 65° Northeast 514 592 37,700 1,020 Climbing Los Angeles Center
05:36PM 37.0714 -112.3408 65° Northeast 517 595 38,800 1,140 Climbing Los Angeles Center
05:37PM 37.1422 -112.1458 65° Northeast 517 595 40,100 1,020 Climbing Los Angeles Center
05:38PM 37.2025 -111.9828 65° Northeast 519 597 41,000 420 Climbing Los Angeles Center
05:40PM 37.2614 -111.8158 66° East 522 601 41,000  Level Los Angeles Center
05:41PM 37.3231 -111.6444 66° East 536 617 41,000  Level Denver Center
05:42PM 37.3978 -111.4328 66° East 552 635 41,000  Level Denver Center
05:43PM 37.4603 -111.2572 66° East 551 634 41,000  Level Denver Center
05:44PM 37.5206 -111.0825 66° East 547 629 41,000  Level Denver Center
05:45PM 37.5817 -110.9078 66° East 547 629 41,000  Level Denver Center
05:46PM 37.6417 -110.7325 67° East 547 629 41,000  Level Denver Center
05:47PM 37.7150 -110.5214 66° East 548 631 41,000  Level Denver Center
05:48PM 37.7767 -110.3406 67° East 545 627 41,000  Level Denver Center
05:49PM 37.8347 -110.1706 67° East 548 631 41,000  Level Denver Center
05:50PM 37.8919 -110.0019 67° East 546 628 41,000  Level Denver Center
05:51PM 37.9486 -109.8294 67° East 551 634 41,000  Level Denver Center
05:52PM 38.0158 -109.6308 67° East 549 632 41,000  Level Denver Center
05:53PM 38.0797 -109.4378 67° East 552 635 41,000  Level Denver Center
05:54PM 38.1456 -109.2361 67° East 554 638 41,000  Level Denver Center
05:55PM 38.2019 -109.0614 68° East 559 643 41,000  Level Denver Center
05:56PM 38.2672 -108.8589 68° East 555 639 41,000  Level Denver Center
05:57PM 38.3233 -108.6853 68° East 556 640 41,000  Level Denver Center
05:58PM 38.3892 -108.4819 68° East 557 641 41,000  Level Denver Center
05:59PM 38.4456 -108.3081 67° East 556 640 41,000  Level Denver Center
06:00PM 38.5106 -108.1017 68° East 562 647 41,100 360 Climbing Denver Center
06:01PM 38.5650 -107.9272 68° East 556 640 41,800 720 Climbing Denver Center
06:02PM 38.6283 -107.7253 68° East 551 634 42,700 540 Climbing Denver Center
06:03PM 38.6817 -107.5553 68° East 543 625 43,000 120 Climbing Denver Center
06:04PM 38.7333 -107.3831 69° East 543 625 43,000  Level Denver Center
06:05PM 38.7958 -107.1786 69° East 552 635 43,000  Level Denver Center
06:06PM 38.8469 -107.0136 68° East 556 640 43,000  Level Denver Center
06:07PM 38.9106 -106.7967 69° East 552 635 43,000  Level Denver Center
06:09PM 38.9647 -106.6208 68° East 553 636 43,000  Level Denver Center
06:10PM 39.0256 -106.4139 69° East 556 640 43,000  Level Denver Center
06:11PM 39.0775 -106.2356 69° East 557 641 43,000  Level Denver Center
06:12PM 39.1308 -106.0539 69° East 556 640 43,000  Level Denver Center
06:13PM 39.1967 -105.8300 69° East 557 641 43,000  Level Denver Center
06:14PM 39.2511 -105.6428 69° East 559 643 43,000  Level Denver Center
06:15PM 39.3072 -105.4528 69° East 570 656 43,000  Level Denver Center
06:16PM 39.3600 -105.2661 70° East 558 642 43,000  Level Denver Center
06:17PM 39.4122 -105.0778 70° East 552 635 43,000  Level Denver Center
06:18PM 39.4481 -104.8839 76° East 563 648 43,000  Level Denver Center
06:19PM 39.4897 -104.6592 76° East 550 633 43,000  Level Denver Center
06:20PM 39.5464 -104.4839 67° East 548 631 43,100  Climbing Denver Center
06:21PM 39.6094 -104.3139 64° Northeast 533 613 43,000 -60 Descending Denver Center
06:22PM 39.6858 -104.0978 65° Northeast 549 632 43,000  Level Denver Center
06:23PM 39.7500 -103.9153 65° Northeast 559 643 43,000  Level Denver Center
06:24PM 39.8147 -103.7350 65° Northeast 547 629 43,000  Level Denver Center
06:25PM 39.8778 -103.5558 65° Northeast 545 627 43,000  Level Denver Center
06:26PM 39.9408 -103.3747 66° East 551 634 43,000  Level Denver Center
06:27PM 40.0161 -103.1567 66° East 551 634 43,000  Level Denver Center
06:29PM 40.1039 -102.9006 66° East 553 636 43,000  Level Denver Center
06:30PM 40.1658 -102.7175 66° East 553 636 43,000  Level Denver Center
06:31PM 40.2283 -102.5311 66° East 556 640 43,000  Level Denver Center
06:32PM 40.2781 -102.3822 66° East 558 642 43,000  Level Denver Center
06:33PM 40.3569 -102.1475 66° East 553 636 43,000  Level Denver Center
06:34PM 40.4142 -101.9722 67° East 549 632 43,000  Level Denver Center
06:35PM 40.4814 -101.7681 67° East 545 627 43,000  Level Denver Center
06:36PM 40.5389 -101.5922 67° East 547 629 43,000  Level Denver Center
06:37PM 40.6053 -101.3867 67° East 548 631 43,000  Level Denver Center
06:38PM 40.6622 -101.2089 67° East 551 634 43,000  Level Denver Center
06:39PM 40.7286 -101.0008 67° East 552 635 43,000  Level Denver Center
06:40PM 40.7925 -100.8019 67° East 555 639 43,000  Level Denver Center
06:41PM 40.8586 -100.5922 67° East 559 643 43,000  Level Denver Center
06:42PM 40.9258 -100.3806 67° East 561 646 43,000  Level Denver Center
06:43PM 40.9819 -100.1983 68° East 560 644 43,000  Level Denver Center
06:44PM 41.0467 -99.9858 68° East 559 643 43,000  Level Denver Center
06:45PM 41.1033 -99.8031 68° East 559 643 43,000  Level Denver Center
06:46PM 41.1675 -99.5892 68° East 560 644 43,000  Level Denver Center
06:47PM 41.1944 -99.5050 67° East 559 643 43,000  Level Minneapolis Center
06:48PM 41.2519 -99.3114 68° East 560 644 43,000  Level Minneapolis Center
06:48PM 41.2867 -99.1953 68° East 558 642 43,000  Level Denver Center
06:49PM 41.3447 -99.0000 68° East 558 642 43,000  Level Denver Center
06:50PM 41.4039 -98.8017 68° East 563 648 43,000  Level Denver Center
06:51PM 41.4281 -98.7131 70° East 560 644 43,000  Level Minneapolis Center
06:52PM 41.4844 -98.5192 69° East 561 646 43,000  Level Minneapolis Center
06:53PM 41.5514 -98.2908 69° East 567 652 43,000  Level Minneapolis Center
06:54PM 41.6094 -98.0883 69° East 564 649 43,000  Level Minneapolis Center
06:55PM 41.6642 -97.8928 69° East 563 648 43,000  Level Minneapolis Center
06:56PM 41.7200 -97.6967 69° East 564 649 43,000  Level Minneapolis Center
06:57PM 41.7747 -97.5006 69° East 561 646 43,000  Level Minneapolis Center
06:58PM 41.8283 -97.3047 70° East 560 644 43,000  Level Minneapolis Center
06:59PM 41.8828 -97.1075 70° East 561 646 43,000  Level Minneapolis Center
07:00PM 41.9372 -96.9108 70° East 561 646 43,000  Level Minneapolis Center
07:01PM 42.0008 -96.6731 70° East 561 646 43,000  Level Minneapolis Center
07:02PM 42.0544 -96.4758 70° East 560 644 43,000  Level Minneapolis Center
07:03PM 42.1069 -96.2753 71° East 564 649 43,000  Level Minneapolis Center
07:04PM 42.1603 -96.0750 70° East 565 650 43,000  Level Minneapolis Center
07:05PM 42.2125 -95.8747 71° East 565 650 43,000  Level Minneapolis Center
07:06PM 42.2647 -95.6742 71° East 564 649 43,000  Level Minneapolis Center
07:08PM 42.3167 -95.4689 71° East 572 658 43,000  Level Minneapolis Center
07:09PM 42.3772 -95.2281 71° East 563 648 43,000  Level Minneapolis Center
07:10PM 42.4286 -95.0267 71° East 565 650 43,000  Level Minneapolis Center
07:11PM 42.4781 -94.8269 71° East 560 644 43,000 -180 Level Minneapolis Center
07:12PM 42.5281 -94.6269 71° East 559 643 42,700 -540 Descending Minneapolis Center
07:13PM 42.5800 -94.4117 72° East 569 655 41,900 -780 Descending Minneapolis Center
07:14PM 42.6061 -94.2031 80° East 567 652 41,200 -480 Descending Minneapolis Center
07:15PM 42.5961 -93.9911 94° East 567 652 41,000 -120 Descending Minneapolis Center
07:16PM 42.5867 -93.7797 93° East 566 651 41,000  Level Minneapolis Center
07:17PM 42.5747 -93.5225 94° East 572 658 41,000  Level Minneapolis Center
07:18PM 42.5639 -93.3147 94° East 563 648 41,000  Level Minneapolis Center
07:19PM 42.5536 -93.1100 94° East 553 636 41,000  Level Minneapolis Center
07:19PM 42.5486 -93.0267 95° East 552 635 41,000  Level Chicago Center
07:20PM 42.5372 -92.8206 94° East 554 638 41,000  Level Chicago Center
07:21PM 42.5253 -92.6156 94° East 553 636 41,000 -120 Level Chicago Center
07:22PM 42.5114 -92.3669 94° East 557 641 40,800 -600 Descending Chicago Center
07:23PM 42.4989 -92.1606 95° East 557 641 39,800 -900 Descending Chicago Center
07:24PM 42.4867 -91.9525 94° East 562 647 39,000 -420 Descending Chicago Center
07:25PM 42.4733 -91.7475 95° East 561 646 39,000  Level Chicago Center
07:27PM 42.4567 -91.5011 95° East 561 646 39,000 -480 Level Chicago Center
07:28PM 42.4422 -91.2928 95° East 565 650 38,100 -1,200 Descending Chicago Center
07:29PM 42.4278 -91.0833 95° East 569 655 36,600 -1,500 Descending Chicago Center
07:30PM 42.4125 -90.8769 96° East 560 644 35,100 -1,500 Descending Chicago Center
07:31PM 42.4089 -90.6250 91° East 568 654 33,500 -1,620 Descending Chicago Center
07:32PM 42.4297 -90.4197 82° East 560 644 31,800 -2,220 Descending Chicago Center
07:33PM 42.4517 -90.2078 82° East 574 661 29,000 -2,640 Descending Chicago Center
07:34PM 42.4725 -90.0028 82° East 556 640 26,400 -2,520 Descending Chicago Center
07:35PM 42.4936 -89.7828 83° East 532 612 23,800 -1,740 Descending Chicago Center
07:36PM 42.5111 -89.5956 83° East 508 585 22,800 -960 Descending Chicago Center
07:37PM 42.5283 -89.4167 82° East 485 558 21,900 -1,680 Descending Chicago Center
07:38PM 42.5486 -89.2042 83° East 487 560 19,400 -2,520 Descending Chicago Center
07:39PM 42.5353 -89.0297 96° East 470 541 16,800 -2,400 Descending Chicago Center
07:40PM 42.4889 -88.8731 112° Southeast 450 518 14,500 -2,220 Descending Chicago Center
07:41PM 42.4450 -88.7292 112° Southeast 419 482 12,300 -2,100 Descending Chicago Center
07:42PM 42.4028 -88.5936 113° Southeast 341 392 10,200 -1,680 Descending Chicago Center
07:43PM 42.3650 -88.4917 117° Southeast 309 356 8,900 -1,260 Descending Chicago Center
07:44PM 42.3044 -88.4422 149° Southeast 266 306 7,700 -1,500 Descending Chicago Center
07:45PM 42.2392 -88.3842 147° Southeast 277 319 5,900 -1,320 Descending Chicago Center
07:46PM 42.1786 -88.3314 147° Southeast 267 307 5,000 -900 Descending Chicago Center
07:47PM 42.1092 -88.2742 149° Southeast 249 287 4,100 -480 Descending Chicago Center
07:48PM 42.0536 -88.2219 145° Southeast 244 281 4,000 -480 Descending Chicago Center
07:49PM 42.0239 -88.1353 115° Southeast 255 293 3,100 -1,020 Descending Chicago Center
07:50PM 42.0000 -88.0833 122° Southeast 249 287 2,500 -720 Descending Chicago TRACON
07:51PM 41.9833 -88.0167 109° East 201 231 2,100 -600 Descending Chicago TRACON
07:52PM 41.9833 -87.9667 90° East 148 170 1,400 -780 Descending Chicago TRACON
07:54PM 41.9817 -87.9067 180° South  Level Estimated
08:01PM 41.9817 -87.9067 180° South  Level Estimated